Time;durP1;ratioP1;P1;durP2;ratioP2;P2;SDS_P1;SDS_P2;PMS_P1;PMS_P2;Temp;Humidity;BMP_temperature;BMP_pressure;BME280_temperature;BME280_humidity;BME280_pressure;Samples;Min_cycle;Max_cycle;Signal;HPM_P1;HPM_P2
2023/09/15 00:01:20;;;;;;;15.30;7.07;;;;;;;24.77;54.18;99488.19;5084099;28;20188;-60
2023/09/15 00:03:46;;;;;;;16.03;5.83;;;;;;;24.78;52.57;99495.22;5071282;28;20196;-60
2023/09/15 00:06:15;;;;;;;11.97;5.93;;;;;;;24.72;51.81;99485.53;5097293;28;20194;-62
2023/09/15 00:08:42;;;;;;;10.93;5.53;;;;;;;24.72;52.54;99490.97;5095068;28;20764;-61
2023/09/15 00:11:15;;;;;;;9.00;5.13;;;;;;;24.73;51.96;99481.69;5087814;28;20195;-61
2023/09/15 00:13:43;;;;;;;8.27;5.00;;;;;;;24.76;51.21;99486.56;5090420;28;20240;-60
2023/09/15 00:16:10;;;;;;;10.93;5.47;;;;;;;24.75;50.32;99484.13;5090165;28;20262;-60
2023/09/15 00:18:37;;;;;;;9.93;5.00;;;;;;;24.55;51.46;99490.53;5090428;28;20252;-60
2023/09/15 00:21:05;;;;;;;6.50;4.50;;;;;;;24.58;51.53;99489.97;5086302;28;20638;-62
2023/09/15 00:23:31;;;;;;;11.63;4.93;;;;;;;24.60;50.75;99495.97;5069902;28;20696;-60
2023/09/15 00:26:04;;;;;;;13.63;4.87;;;;;;;24.65;50.74;99501.34;5070296;28;20265;-62
2023/09/15 00:28:30;;;;;;;13.53;5.27;;;;;;;24.41;50.31;99497.75;5070885;28;20191;-60
2023/09/15 00:31:00;;;;;;;8.30;4.80;;;;;;;24.48;50.97;99500.13;5072976;28;20227;-60
2023/09/15 00:33:27;;;;;;;7.80;5.33;;;;;;;24.52;50.87;99496.56;5091410;28;20226;-60
2023/09/15 00:35:53;;;;;;;12.23;4.87;;;;;;;24.56;50.82;99497.59;5091493;28;20254;-60
2023/09/15 00:38:21;;;;;;;9.00;4.20;;;;;;;24.42;50.79;99488.50;5091126;28;20214;-60
2023/09/15 00:40:48;;;;;;;11.83;4.47;;;;;;;24.46;51.39;99494.97;5093499;28;20314;-60
2023/09/15 00:43:15;;;;;;;12.20;4.50;;;;;;;24.45;51.04;99485.22;5074712;28;20236;-61
2023/09/15 00:45:42;;;;;;;13.77;4.90;;;;;;;24.31;50.43;99497.84;5074768;28;20290;-60
2023/09/15 00:48:10;;;;;;;5.97;4.13;;;;;;;24.35;50.68;99500.78;5074285;28;20196;-60
2023/09/15 00:50:37;;;;;;;4.80;3.80;;;;;;;24.41;51.06;99500.47;5087227;28;20244;-60
2023/09/15 00:53:08;;;;;;;7.20;4.50;;;;;;;24.40;50.88;99501.56;5094764;28;20198;-60
2023/09/15 00:55:35;;;;;;;6.47;4.40;;;;;;;24.44;50.49;99499.91;5094815;28;20218;-60
2023/09/15 00:58:08;;;;;;;10.43;4.50;;;;;;;24.48;50.02;99506.38;5094373;28;20198;-59
2023/09/15 01:00:37;;;;;;;12.60;4.70;;;;;;;24.50;49.36;99504.16;5082911;28;20180;-60
2023/09/15 01:03:05;;;;;;;7.57;4.00;;;;;;;24.52;49.49;99507.44;5074024;28;20199;-59
2023/09/15 01:05:33;;;;;;;12.87;4.33;;;;;;;24.51;49.63;99505.78;5074331;28;20257;-60
2023/09/15 01:08:00;;;;;;;6.50;3.77;;;;;;;24.49;49.42;99509.88;5083139;28;20191;-60
2023/09/15 01:10:27;;;;;;;12.80;4.43;;;;;;;24.50;48.63;99506.09;5092808;28;20243;-60
2023/09/15 01:12:55;;;;;;;6.23;3.93;;;;;;;24.52;48.57;99512.84;5094424;28;20286;-60
2023/09/15 01:15:27;;;;;;;6.03;3.93;;;;;;;24.58;48.13;99521.75;5094406;28;20218;-60
2023/09/15 01:18:00;;;;;;;12.87;4.20;;;;;;;24.58;47.77;99528.00;5094040;28;20698;-60
2023/09/15 01:20:52;;;;;;;14.77;4.47;;;;;;;24.57;47.33;99523.66;5083928;28;20180;-60
2023/09/15 01:24:06;;;;;;;5.87;4.27;;;;;;;24.58;47.27;99519.84;5074109;28;20192;-60
2023/09/15 01:27:00;;;;;;;8.53;4.63;;;;;;;24.56;48.03;99518.50;4999573;28;20279;-59
2023/09/15 01:29:39;;;;;;;8.40;3.73;;;;;;;24.54;48.09;99513.38;5011756;28;20670;-60
2023/09/15 01:32:07;;;;;;;9.93;4.30;;;;;;;24.55;48.06;99514.19;5061446;28;20205;-60
2023/09/15 01:34:36;;;;;;;8.77;4.50;;;;;;;24.57;47.56;99520.13;5073709;28;20619;-59
2023/09/15 01:37:02;;;;;;;9.40;4.30;;;;;;;24.56;47.38;99530.22;5073353;28;20263;-60
2023/09/15 01:39:30;;;;;;;7.43;4.33;;;;;;;24.55;47.91;99523.13;5073365;28;20658;-60
2023/09/15 01:41:58;;;;;;;7.17;4.17;;;;;;;24.56;47.76;99535.63;5073850;28;20257;-60
2023/09/15 01:44:24;;;;;;;15.17;4.90;;;;;;;24.55;47.19;99534.00;5073605;28;20282;-60
2023/09/15 01:46:53;;;;;;;10.20;4.50;;;;;;;24.53;47.41;99533.47;5087267;28;20252;-60
2023/09/15 01:49:21;;;;;;;16.47;4.37;;;;;;;24.55;47.75;99534.00;5093609;28;20191;-60
2023/09/15 01:51:49;;;;;;;11.07;4.60;;;;;;;24.53;47.49;99536.19;5092091;28;20220;-60
2023/09/15 01:54:16;;;;;;;7.27;4.30;;;;;;;24.55;47.65;99544.84;5093399;28;20198;-59
2023/09/15 01:56:43;;;;;;;14.57;5.07;;;;;;;24.55;47.20;99549.50;5093533;28;20219;-59
2023/09/15 01:59:10;;;;;;;15.90;4.70;;;;;;;24.50;47.28;99547.63;5093507;28;20195;-60
2023/09/15 02:01:35;;;;;;;12.67;4.60;;;;;;;24.46;47.32;99543.84;5076278;28;20697;-60
2023/09/15 02:04:04;;;;;;;16.27;4.87;;;;;;;24.41;48.13;99543.09;5072865;28;20203;-59
2023/09/15 02:06:31;;;;;;;10.67;4.90;;;;;;;24.34;48.68;99539.91;5099621;28;20228;-60
2023/09/15 02:08:58;;;;;;;15.27;5.23;;;;;;;24.29;48.73;99535.31;5094415;28;20245;-60
2023/09/15 02:11:24;;;;;;;19.47;5.00;;;;;;;24.29;48.03;99546.19;5090206;28;20358;-61
2023/09/15 02:13:51;;;;;;;13.17;4.50;;;;;;;24.26;48.34;99541.31;5091264;28;20211;-61
2023/09/15 02:16:18;;;;;;;12.87;4.63;;;;;;;24.19;49.60;99543.56;5090564;28;20258;-59
2023/09/15 02:18:46;;;;;;;16.87;4.73;;;;;;;24.10;49.91;99536.28;5084274;28;20222;-59
2023/09/15 02:21:14;;;;;;;11.30;4.43;;;;;;;24.00;50.34;99545.31;5070659;28;20261;-60
2023/09/15 02:23:41;;;;;;;12.23;4.70;;;;;;;23.92;50.83;99545.09;5070276;28;20225;-59
2023/09/15 02:26:08;;;;;;;7.53;4.50;;;;;;;23.84;51.41;99543.75;5071035;28;20199;-60
2023/09/15 02:28:35;;;;;;;13.27;4.73;;;;;;;23.73;51.41;99542.19;5075409;28;20193;-59
2023/09/15 02:31:04;;;;;;;12.80;5.37;;;;;;;23.70;51.97;99548.19;5092659;28;20216;-59
2023/09/15 02:33:31;;;;;;;10.97;4.80;;;;;;;23.66;52.52;99554.44;5092566;28;20745;-59
2023/09/15 02:35:58;;;;;;;11.87;5.57;;;;;;;23.58;51.78;99550.41;5092793;28;20222;-59
2023/09/15 02:38:26;;;;;;;15.33;5.30;;;;;;;23.52;52.37;99548.81;5089601;28;20188;-59
2023/09/15 02:40:53;;;;;;;13.53;5.50;;;;;;;23.48;52.82;99550.44;5072325;28;20242;-59
2023/09/15 02:43:20;;;;;;;8.70;4.37;;;;;;;23.42;52.85;99551.56;5072173;28;20290;-59
2023/09/15 02:45:47;;;;;;;9.63;4.60;;;;;;;23.39;53.10;99549.41;5072628;28;20199;-59
2023/09/15 02:48:15;;;;;;;13.60;5.17;;;;;;;23.34;53.64;99554.03;5072542;28;20202;-60
2023/09/15 02:50:42;;;;;;;11.20;4.53;;;;;;;23.28;53.61;99558.66;5092627;28;20193;-59
2023/09/15 02:53:09;;;;;;;12.53;4.70;;;;;;;23.23;53.87;99564.13;5092193;28;20285;-59
2023/09/15 02:55:37;;;;;;;9.03;3.97;;;;;;;23.18;53.60;99555.16;5091965;28;20225;-59
2023/09/15 02:58:04;;;;;;;12.80;4.43;;;;;;;23.13;54.46;99568.72;5078694;28;20196;-59
2023/09/15 03:00:31;;;;;;;16.40;5.67;;;;;;;23.08;54.66;99563.31;5071982;28;20297;-59
2023/09/15 03:02:58;;;;;;;15.63;4.80;;;;;;;23.02;55.74;99562.53;5071460;28;20206;-59
2023/09/15 03:05:26;;;;;;;10.93;4.67;;;;;;;23.03;54.70;99563.34;5072051;28;20204;-59
2023/09/15 03:07:54;;;;;;;14.80;4.90;;;;;;;22.98;54.57;99556.03;5074995;28;20245;-59
2023/09/15 03:10:21;;;;;;;12.50;4.77;;;;;;;22.95;54.78;99561.19;5071795;28;20190;-60
2023/09/15 03:12:51;;;;;;;13.10;4.87;;;;;;;22.94;55.02;99554.94;5071604;28;20224;-59
2023/09/15 03:15:18;;;;;;;10.83;4.63;;;;;;;22.92;54.85;99559.84;5071987;28;20221;-60
2023/09/15 03:17:45;;;;;;;14.93;4.97;;;;;;;22.91;55.12;99555.50;5080935;28;20197;-59
2023/09/15 03:20:15;;;;;;;16.20;5.03;;;;;;;22.85;55.13;99556.59;5092135;28;20193;-59
2023/09/15 03:22:43;;;;;;;14.17;4.80;;;;;;;22.85;54.90;99561.19;5092755;28;20184;-59
2023/09/15 03:25:10;;;;;;;16.10;4.53;;;;;;;22.84;54.28;99554.97;5089514;28;20230;-59
2023/09/15 03:27:36;;;;;;;19.03;5.60;;;;;;;22.82;54.88;99567.97;5071492;28;20258;-59
2023/09/15 03:30:06;;;;;;;15.73;5.13;;;;;;;22.79;54.86;99563.09;5071357;28;20197;-59
2023/09/15 03:32:33;;;;;;;15.30;4.77;;;;;;;22.78;54.58;99575.03;5071403;28;20197;-59
2023/09/15 03:35:00;;;;;;;14.00;4.77;;;;;;;22.76;53.87;99579.91;5071373;28;20702;-60
2023/09/15 03:37:27;;;;;;;19.47;5.40;;;;;;;22.74;53.58;99586.69;5071611;28;20252;-59
2023/09/15 03:39:54;;;;;;;10.03;5.10;;;;;;;22.71;52.83;99587.22;5071178;28;20244;-60
2023/09/15 03:42:20;;;;;;;11.73;4.97;;;;;;;22.67;53.18;99591.56;5072469;28;20186;-60
2023/09/15 03:44:47;;;;;;;16.93;5.07;;;;;;;22.63;53.38;99587.78;5071274;28;20197;-59
2023/09/15 03:47:15;;;;;;;18.60;4.60;;;;;;;22.55;54.57;99599.16;5071558;28;20280;-60
2023/09/15 03:49:42;;;;;;;18.93;4.70;;;;;;;22.53;54.70;99602.13;5071511;28;20246;-59
2023/09/15 03:52:08;;;;;;;15.60;4.53;;;;;;;22.51;55.08;99598.88;5073461;28;20197;-59
2023/09/15 03:54:35;;;;;;;14.83;4.60;;;;;;;22.51;55.29;99604.31;5091272;28;20333;-59
2023/09/15 03:57:03;;;;;;;13.90;4.80;;;;;;;22.52;55.39;99608.63;5091678;28;20221;-60
2023/09/15 03:59:29;;;;;;;6.63;4.50;;;;;;;22.47;55.48;99610.53;5091475;28;20279;-60
2023/09/15 04:01:57;;;;;;;17.67;4.63;;;;;;;22.45;55.17;99610.75;5081097;28;20188;-60
2023/09/15 04:04:25;;;;;;;21.03;5.43;;;;;;;22.47;56.01;99613.22;5081173;28;20291;-60
2023/09/15 04:06:53;;;;;;;18.33;5.20;;;;;;;22.52;56.39;99611.34;5082941;28;20216;-60
2023/09/15 04:09:20;;;;;;;26.57;5.83;;;;;;;22.52;55.88;99608.63;5078487;28;20245;-60
2023/09/15 04:11:46;;;;;;;32.07;6.53;;;;;;;22.56;56.52;99619.72;5077092;28;20281;-61
2023/09/15 04:14:13;;;;;;;24.40;6.23;;;;;;;22.58;56.69;99618.38;5076681;28;20186;-60
2023/09/15 04:16:40;;;;;;;20.70;6.67;;;;;;;22.57;56.52;99624.88;5080648;28;20288;-60
2023/09/15 04:19:06;;;;;;;20.43;6.37;;;;;;;22.53;57.14;99626.50;5081806;28;20188;-60
2023/09/15 04:21:37;;;;;;;33.17;7.00;;;;;;;22.57;57.07;99634.88;5079907;28;20217;-59
2023/09/15 04:24:04;;;;;;;34.13;7.33;;;;;;;22.58;57.74;99636.53;5082557;28;20184;-60
2023/09/15 04:26:30;;;;;;;27.73;7.03;;;;;;;22.54;56.89;99640.84;5083428;28;20269;-60
2023/09/15 04:28:58;;;;;;;28.00;6.40;;;;;;;22.46;57.22;99653.00;5083011;28;20189;-60
2023/09/15 04:31:24;;;;;;;26.80;7.13;;;;;;;22.33;58.89;99650.00;5082890;28;20272;-60
2023/09/15 04:33:51;;;;;;;18.90;5.73;;;;;;;22.35;59.64;99648.66;5084914;28;20188;-59
2023/09/15 04:36:18;;;;;;;14.43;6.00;;;;;;;22.68;60.11;99637.34;5091978;28;20227;-59
2023/09/15 04:38:46;;;;;;;20.70;5.27;;;;;;;23.25;60.32;99648.69;5094036;28;20192;-60
2023/09/15 04:41:12;;;;;;;27.47;6.73;;;;;;;23.72;56.88;99657.22;5092277;28;20588;-59
2023/09/15 04:43:39;;;;;;;45.70;8.73;;;;;;;23.95;55.55;99661.22;5094279;28;20288;-59
2023/09/15 04:46:06;;;;;;;24.40;6.87;;;;;;;24.36;56.03;99662.63;5093795;28;20263;-58
2023/09/15 04:48:32;;;;;;;34.40;7.43;;;;;;;24.58;53.02;99669.25;5090875;28;20198;-59
2023/09/15 04:50:59;;;;;;;22.03;6.83;;;;;;;24.75;53.95;99668.91;5090242;28;20187;-59
2023/09/15 04:53:26;;;;;;;25.87;6.93;;;;;;;24.97;53.30;99663.81;5074190;28;20244;-59
2023/09/15 04:55:54;;;;;;;21.37;7.80;;;;;;;24.93;52.68;99658.16;5090290;28;20272;-59
2023/09/15 04:58:20;;;;;;;24.80;7.30;;;;;;;24.96;55.33;99660.28;5090474;28;20191;-59
2023/09/15 05:00:48;;;;;;;21.07;7.17;;;;;;;25.32;51.76;99673.59;5092284;28;20213;-59
2023/09/15 05:03:14;;;;;;;19.07;7.00;;;;;;;25.37;51.46;99670.81;5073601;28;20228;-60
2023/09/15 05:05:43;;;;;;;22.00;7.33;;;;;;;25.64;52.98;99669.13;5072678;28;20736;-59
2023/09/15 05:08:10;;;;;;;20.70;6.50;;;;;;;26.03;51.93;99668.97;5074245;28;20257;-62
2023/09/15 05:10:36;;;;;;;30.30;13.03;;;;;;;26.65;50.66;99660.47;5072723;28;20207;-65
2023/09/15 05:13:06;;;;;;;23.77;7.70;;;;;;;27.22;47.47;99670.97;5070816;28;21937;-62
2023/09/15 05:15:34;;;;;;;19.33;6.27;;;;;;;27.68;45.11;99669.03;5088720;28;20270;-61
2023/09/15 05:18:00;;;;;;;13.27;5.93;;;;;;;28.15;43.72;99677.59;5080071;28;20231;-61
2023/09/15 05:20:27;;;;;;;11.50;5.43;;;;;;;28.62;42.14;99682.56;5089139;28;20268;-63
2023/09/15 05:22:53;;;;;;;13.73;5.83;;;;;;;28.92;41.10;99681.03;5090437;28;20191;-62
2023/09/15 05:25:20;;;;;;;9.23;5.53;;;;;;;28.96;40.77;99685.53;5087553;28;20663;-64
2023/09/15 05:27:47;;;;;;;8.63;5.53;;;;;;;29.11;40.53;99676.16;5090342;28;20199;-62
2023/09/15 05:30:16;;;;;;;10.87;5.40;;;;;;;29.37;38.81;99682.63;5076394;28;20188;-64
2023/09/15 05:32:42;;;;;;;17.90;5.20;;;;;;;29.44;38.99;99680.25;5070423;28;20249;-63
2023/09/15 05:35:10;;;;;;;18.33;6.23;;;;;;;29.68;38.71;99686.16;5078196;28;20198;-66
2023/09/15 05:37:37;;;;;;;10.80;5.30;;;;;;;29.95;38.29;99693.34;5086923;28;20284;-65
2023/09/15 05:40:04;;;;;;;11.63;5.17;;;;;;;30.29;37.10;99693.47;5069723;28;20624;-64
2023/09/15 05:42:31;;;;;;;10.40;5.83;;;;;;;30.48;37.26;99692.03;5070658;28;20256;-62
2023/09/15 05:44:59;;;;;;;11.37;4.70;;;;;;;30.46;36.96;99696.22;5072587;28;20214;-64
2023/09/15 05:47:28;;;;;;;13.70;5.50;;;;;;;30.23;36.79;99692.81;5087455;28;20675;-64
2023/09/15 05:49:54;;;;;;;15.37;5.57;;;;;;;30.03;37.14;99698.84;5086211;28;20188;-65
2023/09/15 05:52:21;;;;;;;16.03;5.60;;;;;;;30.01;37.39;99706.56;5087207;28;20183;-63
2023/09/15 05:54:47;;;;;;;14.17;5.67;;;;;;;30.04;37.95;99705.16;5089665;28;20261;-64
2023/09/15 05:57:14;;;;;;;13.80;6.53;;;;;;;29.84;38.30;99703.78;5089406;28;20210;-62
2023/09/15 05:59:41;;;;;;;14.33;6.33;;;;;;;29.68;39.22;99699.06;5084789;28;20245;-63
2023/09/15 06:02:08;;;;;;;14.50;5.63;;;;;;;29.94;38.30;99700.78;5082650;28;20200;-62
2023/09/15 06:04:36;;;;;;;17.90;6.27;;;;;;;29.84;38.45;99690.09;5080806;28;20267;-62
2023/09/15 06:07:02;;;;;;;20.57;6.43;;;;;;;30.04;38.54;99705.94;5083388;28;20192;-64
2023/09/15 06:09:29;;;;;;;17.20;5.83;;;;;;;30.33;37.98;99708.94;5076573;28;20692;-63
2023/09/15 06:11:55;;;;;;;10.77;6.40;;;;;;;30.10;38.31;99707.44;5077479;28;20633;-63
2023/09/15 06:14:22;;;;;;;11.67;5.67;;;;;;;30.26;38.33;99697.66;5078817;28;20655;-63
2023/09/15 06:16:49;;;;;;;8.57;6.53;;;;;;;30.26;38.17;99705.88;5081056;28;20587;-63
2023/09/15 06:19:15;;;;;;;13.00;6.00;;;;;;;29.89;38.98;99702.84;5086418;28;20188;-63
2023/09/15 06:21:43;;;;;;;19.20;6.33;;;;;;;29.57;39.80;99703.16;5071412;28;20196;-65
2023/09/15 06:24:10;;;;;;;18.60;6.00;;;;;;;29.61;40.09;99695.97;5077790;28;20249;-64
2023/09/15 06:26:37;;;;;;;14.47;6.13;;;;;;;29.70;40.43;99696.81;5074303;28;20666;-63
2023/09/15 06:29:04;;;;;;;22.13;6.83;;;;;;;29.65;40.48;99699.69;5073094;28;20251;-66
2023/09/15 06:31:31;;;;;;;20.20;6.90;;;;;;;29.58;40.58;99702.06;5068463;28;20188;-65
2023/09/15 06:33:57;;;;;;;18.37;6.60;;;;;;;29.46;40.55;99699.88;5079295;28;20659;-65
2023/09/15 06:36:26;;;;;;;20.77;6.80;;;;;;;29.51;40.56;99702.47;5100317;28;20222;-63
2023/09/15 06:38:54;;;;;;;21.40;7.23;;;;;;;29.72;40.58;99703.56;5093085;28;20650;-65
2023/09/15 06:41:21;;;;;;;16.23;6.03;;;;;;;29.84;40.28;99712.00;5090582;28;20284;-63
2023/09/15 06:43:48;;;;;;;10.03;5.80;;;;;;;29.99;40.28;99708.03;5091321;28;20671;-64
2023/09/15 06:46:18;;;;;;;10.53;5.63;;;;;;;30.39;39.20;99709.59;5087559;28;20225;-63
2023/09/15 06:48:45;;;;;;;15.70;6.27;;;;;;;30.79;38.61;99717.38;5079941;28;20900;-63
2023/09/15 06:51:12;;;;;;;11.50;6.47;;;;;;;31.00;37.42;99721.13;5084536;28;20353;-63
2023/09/15 06:53:39;;;;;;;26.73;7.53;;;;;;;31.12;37.17;99715.78;5089990;28;20187;-62
2023/09/15 06:56:07;;;;;;;13.90;5.90;;;;;;;31.21;36.96;99713.00;5089379;28;20225;-64
2023/09/15 06:58:34;;;;;;;12.20;5.60;;;;;;;31.36;36.58;99715.25;5088288;28;20323;-63
2023/09/15 07:01:00;;;;;;;12.90;5.80;;;;;;;31.44;36.65;99712.47;5071577;28;20223;-65
2023/09/15 07:03:27;;;;;;;12.93;5.60;;;;;;;31.62;36.15;99711.31;5068204;28;20195;-64
2023/09/15 07:05:54;;;;;;;13.47;5.50;;;;;;;31.66;36.05;99706.75;5069673;28;20204;-64
2023/09/15 07:08:20;;;;;;;10.60;5.03;;;;;;;31.58;35.19;99702.09;5080446;28;20225;-65
2023/09/15 07:10:51;;;;;;;14.00;5.10;;;;;;;31.30;35.25;99717.38;5087241;28;20191;-63
2023/09/15 07:13:19;;;;;;;19.93;6.60;;;;;;;31.32;35.53;99714.31;5090487;28;20188;-64
2023/09/15 07:15:47;;;;;;;15.97;5.67;;;;;;;31.20;35.53;99712.19;5082888;28;20188;-65
2023/09/15 07:18:13;;;;;;;12.17;6.17;;;;;;;31.17;35.36;99718.34;5081486;28;20226;-65
2023/09/15 07:20:40;;;;;;;11.80;5.30;;;;;;;31.43;36.10;99702.63;5083099;28;20203;-63
2023/09/15 07:23:07;;;;;;;17.60;5.53;;;;;;;31.77;35.08;99704.50;5072531;28;20188;-64
2023/09/15 07:25:34;;;;;;;31.03;6.90;;;;;;;31.86;34.34;99708.00;5079578;28;20223;-63
2023/09/15 07:28:01;;;;;;;25.10;6.50;;;;;;;31.85;34.83;99704.44;5083562;28;20744;-62
2023/09/15 07:30:30;;;;;;;18.07;6.33;;;;;;;32.13;34.94;99697.34;5073525;28;20188;-62
2023/09/15 07:32:57;;;;;;;20.70;6.43;;;;;;;32.35;33.83;99699.00;5070996;28;20320;-63
2023/09/15 07:35:23;;;;;;;16.73;5.53;;;;;;;32.42;34.00;99700.06;5069637;28;20253;-64
2023/09/15 07:37:50;;;;;;;18.43;6.13;;;;;;;32.70;33.26;99709.41;5069980;28;20606;-63
2023/09/15 07:40:18;;;;;;;9.63;5.67;;;;;;;32.89;32.52;99701.53;5077042;28;20210;-62
2023/09/15 07:42:46;;;;;;;15.30;6.83;;;;;;;32.83;32.16;99697.34;5088069;28;20202;-62
2023/09/15 07:45:13;;;;;;;10.97;5.90;;;;;;;32.54;33.00;99697.41;5090693;28;20195;-64
2023/09/15 07:47:41;;;;;;;9.57;6.80;;;;;;;32.48;32.79;99698.75;5089401;28;20202;-62
2023/09/15 07:50:08;;;;;;;9.50;5.40;;;;;;;32.61;33.00;99700.44;5097267;28;20787;-62
2023/09/15 07:52:35;;;;;;;20.48;6.18;;;;;;;32.85;32.54;99706.09;5094080;28;20183;-62
2023/09/15 07:55:02;;;;;;;7.87;5.57;;;;;;;33.13;31.97;99704.38;5097183;28;20198;-63
2023/09/15 07:57:30;;;;;;;13.23;6.90;;;;;;;33.17;32.10;99704.47;5096122;28;20678;-65
2023/09/15 07:59:58;;;;;;;19.05;6.40;;;;;;;33.19;31.81;99700.25;5091050;28;20277;-63
2023/09/15 08:02:26;;;;;;;14.38;6.45;;;;;;;32.95;31.97;99691.91;5096535;28;20674;-64
2023/09/15 08:04:54;;;;;;;14.27;6.20;;;;;;;33.07;32.46;99694.69;5097044;28;20194;-64
2023/09/15 08:07:21;;;;;;;10.10;5.90;;;;;;;33.23;31.94;99692.09;5103473;28;20226;-64
2023/09/15 08:09:48;;;;;;;14.75;6.68;;;;;;;33.34;31.67;99693.31;5093059;28;20689;-64
2023/09/15 08:12:16;;;;;;;10.73;5.65;;;;;;;33.03;31.43;99693.75;5095254;28;20646;-64
2023/09/15 08:14:43;;;;;;;6.75;6.07;;;;;;;32.90;31.53;99691.28;5094985;28;20226;-64
2023/09/15 08:17:09;;;;;;;22.38;7.38;;;;;;;32.91;31.47;99676.41;5094655;28;20227;-63
2023/09/15 08:19:36;;;;;;;7.80;6.00;;;;;;;32.95;31.81;99680.09;5093626;28;20355;-63
2023/09/15 08:22:05;;;;;;;10.60;6.20;;;;;;;33.10;31.69;99677.50;5095280;28;20194;-64
2023/09/15 08:24:32;;;;;;;14.70;6.60;;;;;;;33.21;31.45;99678.69;5093242;28;20191;-63
2023/09/15 08:26:59;;;;;;;10.73;6.20;;;;;;;33.47;30.70;99683.13;5085636;28;20192;-62
2023/09/15 08:29:25;;;;;;;12.00;6.57;;;;;;;33.67;30.48;99679.47;5079934;28;20248;-62
2023/09/15 08:31:52;;;;;;;16.42;6.03;;;;;;;33.74;30.65;99674.19;5094740;28;20275;-62
2023/09/15 08:34:19;;;;;;;16.90;7.75;;;;;;;33.68;30.46;99675.56;5087654;28;20253;-63
2023/09/15 08:36:45;;;;;;;14.43;6.47;;;;;;;33.86;30.28;99671.47;5093963;28;20191;-63
2023/09/15 08:39:14;;;;;;;13.57;6.78;;;;;;;33.79;29.87;99665.69;5093918;28;20191;-63
2023/09/15 08:41:48;;;;;;;10.88;5.95;;;;;;;33.45;30.13;99663.38;5096213;28;20231;-63
2023/09/15 08:44:16;;;;;;;12.02;5.85;;;;;;;33.39;31.13;99660.03;5095439;28;20209;-63
2023/09/15 08:46:44;;;;;;;13.80;6.57;;;;;;;33.32;30.53;99661.75;5093711;28;20276;-63
2023/09/15 08:49:10;;;;;;;12.13;5.82;;;;;;;33.29;31.04;99641.16;5095922;28;20346;-63
2023/09/15 08:51:38;;;;;;;15.07;6.00;;;;;;;33.35;30.35;99655.56;5096256;28;20231;-62
2023/09/15 08:54:05;;;;;;;16.17;6.13;;;;;;;33.44;30.70;99651.56;5094834;28;20191;-63
2023/09/15 08:56:33;;;;;;;10.88;6.00;;;;;;;33.56;30.65;99646.03;5094639;28;20929;-63
2023/09/15 08:59:03;;;;;;;14.52;6.20;;;;;;;33.54;30.57;99647.53;5091460;28;20304;-63
2023/09/15 09:01:30;;;;;;;23.15;6.32;;;;;;;33.16;31.10;99639.53;5092662;28;20285;-63
2023/09/15 09:03:57;;;;;;;9.05;5.85;;;;;;;33.20;31.40;99633.00;5092757;28;20196;-62
2023/09/15 09:06:25;;;;;;;13.18;6.53;;;;;;;33.41;30.88;99643.97;5079437;28;20274;-63
2023/09/15 09:08:51;;;;;;;10.15;5.50;;;;;;;33.46;29.38;99642.94;5072688;28;20196;-63
2023/09/15 09:11:18;;;;;;;14.90;7.28;;;;;;;33.10;30.16;99647.22;5086906;28;20245;-64
2023/09/15 09:13:53;;;;;;;16.50;6.95;;;;;;;33.20;30.46;99644.00;5093383;28;20275;-62
2023/09/15 09:16:20;;;;;;;8.43;5.45;;;;;;;33.30;30.08;99642.78;5090226;28;20183;-63
2023/09/15 09:18:57;;;;;;;15.40;6.50;;;;;;;33.26;30.72;99639.91;5091365;28;20769;-63
2023/09/15 09:21:25;;;;;;;11.77;6.28;;;;;;;33.35;30.83;99639.03;5083106;28;20186;-65
2023/09/15 09:23:52;;;;;;;19.50;6.75;;;;;;;33.39;30.22;99635.22;5073553;28;20279;-62
2023/09/15 09:26:18;;;;;;;15.52;6.47;;;;;;;33.41;30.65;99626.63;5079916;28;20244;-64
2023/09/15 09:28:45;;;;;;;9.45;6.18;;;;;;;33.43;30.72;99635.38;5091788;28;20199;-63
2023/09/15 09:31:13;;;;;;;20.65;6.90;;;;;;;33.33;30.80;99625.59;5092487;28;20274;-63
2023/09/15 09:33:40;;;;;;;12.25;6.53;;;;;;;32.93;31.53;99628.13;5092351;28;20195;-63
2023/09/15 09:36:17;;;;;;;11.73;6.30;;;;;;;32.80;31.90;99628.38;5092359;28;20187;-63
2023/09/15 09:38:45;;;;;;;12.00;6.30;;;;;;;33.13;31.18;99620.94;5080338;28;20659;-62
2023/09/15 09:41:13;;;;;;;13.73;7.05;;;;;;;33.50;30.42;99624.56;5077851;28;20272;-63
2023/09/15 09:43:40;;;;;;;9.82;6.15;;;;;;;33.61;29.87;99621.03;5092326;28;20615;-62
2023/09/15 09:46:08;;;;;;;9.40;6.07;;;;;;;33.75;29.65;99612.38;5090634;28;20260;-62
2023/09/15 09:48:37;;;;;;;9.93;5.72;;;;;;;33.91;29.86;99614.13;5091559;28;20206;-62
2023/09/15 09:51:05;;;;;;;13.38;6.53;;;;;;;34.10;29.10;99611.59;5090738;28;20685;-63
2023/09/15 09:53:33;;;;;;;13.52;5.88;;;;;;;33.87;30.31;99606.91;5092620;28;20246;-62
2023/09/15 09:56:01;;;;;;;7.95;6.50;;;;;;;33.70;30.06;99598.84;5084755;28;20245;-64
2023/09/15 09:58:28;;;;;;;9.95;5.32;;;;;;;33.84;30.04;99594.59;5090793;28;20275;-63
2023/09/15 10:00:54;;;;;;;10.20;6.03;;;;;;;33.93;29.55;99606.34;5091077;28;20191;-63
2023/09/15 10:03:22;;;;;;;16.45;6.43;;;;;;;34.08;29.25;99597.31;5080075;28;20236;-63
2023/09/15 10:05:50;;;;;;;14.95;6.60;;;;;;;33.93;30.02;99605.53;5074202;28;20230;-65
2023/09/15 10:08:17;;;;;;;10.05;6.65;;;;;;;34.02;29.63;99603.44;5094790;28;20195;-64
2023/09/15 10:10:46;;;;;;;7.97;6.18;;;;;;;34.15;29.74;99597.56;5088444;28;20702;-63
2023/09/15 10:13:14;;;;;;;9.93;6.43;;;;;;;34.31;29.41;99603.16;5073812;28;20222;-63
2023/09/15 10:15:42;;;;;;;14.10;6.53;;;;;;;34.39;29.27;99603.03;5070379;28;20200;-64
2023/09/15 10:18:12;;;;;;;11.25;6.15;;;;;;;34.18;29.81;99596.03;5072507;28;20244;-64
2023/09/15 10:20:40;;;;;;;11.80;6.65;;;;;;;34.31;29.66;99594.88;5090735;28;20192;-64
2023/09/15 10:23:09;;;;;;;8.48;6.63;;;;;;;34.38;28.98;99614.41;5090335;28;20248;-62
2023/09/15 10:25:43;;;;;;;14.02;5.82;;;;;;;34.54;29.13;99598.72;5071109;28;20253;-62
2023/09/15 10:28:11;;;;;;;7.47;6.43;;;;;;;34.68;28.64;99599.09;5082025;28;20283;-63
2023/09/15 10:30:38;;;;;;;6.43;5.82;;;;;;;34.62;29.11;99581.19;5076239;28;20196;-64
2023/09/15 10:33:06;;;;;;;10.95;6.00;;;;;;;34.71;28.98;99581.84;5079203;28;20245;-63
2023/09/15 10:35:33;;;;;;;9.43;5.97;;;;;;;34.73;28.73;99574.81;5079926;28;20205;-62
2023/09/15 10:38:03;;;;;;;8.75;6.32;;;;;;;34.78;29.12;99577.31;5078846;28;20302;-64
2023/09/15 10:40:45;;;;;;;7.88;5.78;;;;;;;34.65;28.93;99569.44;5079567;28;20223;-63
2023/09/15 10:43:12;;;;;;;9.65;6.18;;;;;;;34.62;29.15;99570.16;5078479;28;20175;-62
2023/09/15 10:45:39;;;;;;;11.18;6.53;;;;;;;34.35;29.11;99569.00;5074538;28;20251;-64
2023/09/15 10:48:06;;;;;;;8.90;6.53;;;;;;;34.37;29.34;99563.16;5075130;28;20320;-64
2023/09/15 10:50:35;;;;;;;9.80;6.38;;;;;;;34.25;29.52;99563.94;5079842;28;20188;-66
2023/09/15 10:53:09;;;;;;;10.93;5.63;;;;;;;34.23;29.65;99559.94;5075374;28;20196;-63
2023/09/15 10:55:37;;;;;;;12.00;5.95;;;;;;;34.30;29.37;99557.38;5083013;28;20188;-65
2023/09/15 10:58:05;;;;;;;6.93;6.07;;;;;;;34.07;29.71;99551.59;5079066;28;20328;-63
2023/09/15 11:00:32;;;;;;;10.45;5.97;;;;;;;33.78;30.44;99554.63;5078815;28;20565;-63
2023/09/15 11:02:59;;;;;;;6.93;6.28;;;;;;;33.80;30.41;99555.06;5080908;28;20703;-64
2023/09/15 11:05:27;;;;;;;11.48;6.38;;;;;;;33.88;30.59;99556.16;5079861;28;20196;-63
2023/09/15 11:07:56;;;;;;;7.43;5.75;;;;;;;34.02;30.05;99553.81;5063437;28;20200;-63
2023/09/15 11:10:27;;;;;;;8.73;6.28;;;;;;;33.75;29.90;99557.25;5090101;28;20277;-62
2023/09/15 11:13:00;;;;;;;7.65;5.15;;;;;;;33.63;30.09;99562.81;5090208;28;20262;-63
2023/09/15 11:15:28;;;;;;;6.97;5.55;;;;;;;33.74;30.17;99550.16;5090472;28;20207;-63
2023/09/15 11:17:55;;;;;;;7.65;5.40;;;;;;;33.66;29.92;99543.63;5084614;28;20253;-64
2023/09/15 11:20:22;;;;;;;9.23;5.75;;;;;;;33.48;30.36;99538.72;5081536;28;20286;-64
2023/09/15 11:22:54;;;;;;;7.60;5.75;;;;;;;33.46;30.41;99529.97;5078083;28;20250;-63
2023/09/15 11:25:21;;;;;;;9.70;5.82;;;;;;;33.45;30.59;99533.88;5080555;28;20230;-63
2023/09/15 11:27:48;;;;;;;8.77;5.85;;;;;;;33.44;30.45;99518.50;5089454;28;20187;-65
2023/09/15 11:30:16;;;;;;;6.38;5.75;;;;;;;33.55;29.93;99527.91;5080011;28;20888;-64